Terminal Aerodrome Forecast
Issued by NWS

Home | Current Version | Previous Version | Graphics & Text | Print | Product List | Glossary On
Versions: 1 2 3 4 5 6 7 8 9 10 11 12 13 14 15 16 17 18 19
000
FTUS43 KMPX 251300 AAA
TAFRNH
TAF AMD
KRNH 251335Z 2514/2612 19006KT P6SM SCT008 BKN030
      TEMPO 2514/2516 BKN008 OVC030
     FM251800 20006KT P6SM BKN040
     FM260200 VRB03KT 4SM BR SCT040
     FM260500 VRB03KT 2SM BR SCT007=

USA.gov is the U.S. government's official web portal to all federal, state and local government web resources and services.